Rechercher aéroport 
image banner adimage banner ad
image banner ad

SSNP - Nova Prata Airport

Situé à Nova Prata, Brazil

ICAO - SSNP, IATA -

Données fournies par Airmate  

Information générale

Coordonnées: S28°48'9" W51°36'15"
Élévation : 2263 feet MSL.
Variation magnétique : -17° East
Voir autres Aéroports à Rio Grande do Sul

Données opérationnelles

Accessible au public
Heure actuelle UTC:
Heure actuelle locale:
METAR: SBCX 301400Z 15004KT 8000 VCFG FEW002 SCT012 OVC080 18/17 Q1016
Voir NOTAMs / SUP AIP / TFR affectant cet aéroport [VIEW]
Fréquences de communication: [VIEW]

Pistes:

Identifiant RWYQFULongueur (ft)Largeur (ft)SurfaceLDA (ft)
13328198ASP
31328198ASP

Coordonnées de l'aéroport

Adresse: Nova Prata Brazil

Vue satellite de SSNP